createdAt,value
2019-06-20T00:00:40.454Z,96.77
2019-06-20T00:01:40.425Z,96.67
2019-06-20T00:02:40.406Z,96.67
2019-06-20T00:03:40.556Z,96.56
2019-06-20T00:04:40.401Z,96.56
2019-06-20T00:05:40.723Z,96.56
2019-06-20T00:06:40.377Z,96.36
2019-06-20T00:07:40.386Z,96.56
2019-06-20T00:08:40.449Z,96.56
2019-06-20T00:09:40.505Z,96.26
2019-06-20T00:10:40.470Z,96.47
2019-06-20T00:11:40.340Z,96.47
2019-06-20T00:12:40.325Z,97.07
2019-06-20T00:13:40.288Z,96.87
2019-06-20T00:14:40.275Z,97.38
2019-06-20T00:15:40.265Z,97.02
2019-06-20T00:16:40.292Z,97.02
2019-06-20T00:17:40.243Z,96.87
2019-06-20T00:18:40.230Z,97.27
2019-06-20T00:19:40.228Z,97.22
2019-06-20T00:20:40.218Z,97.12
2019-06-20T00:21:40.228Z,96.92
2019-06-20T00:22:40.200Z,97.38
2019-06-20T00:23:40.177Z,97.12
2019-06-20T00:24:40.182Z,97.22
2019-06-20T00:25:40.171Z,97.32
2019-06-20T00:26:40.183Z,97.17
2019-06-20T00:27:40.130Z,97.32
2019-06-20T00:28:40.126Z,97.17
2019-06-20T00:29:40.109Z,97.17
2019-06-20T00:30:40.104Z,97.27
2019-06-20T00:31:40.092Z,97.58
2019-06-20T00:32:40.109Z,96.87
2019-06-20T00:33:40.070Z,97.17
2019-06-20T00:34:40.069Z,96.87
2019-06-20T00:35:40.047Z,97.38
2019-06-20T00:36:40.047Z,97.27
2019-06-20T00:37:40.060Z,97.22
2019-06-20T00:38:40.055Z,96.81
2019-06-20T00:39:40.004Z,97.62
2019-06-20T00:40:39.987Z,97.12
2019-06-20T00:41:39.983Z,97.42
2019-06-20T00:42:40.003Z,97.42
2019-06-20T00:43:39.964Z,97.32
2019-06-20T00:44:39.979Z,97.38
2019-06-20T00:45:39.943Z,96.41
2019-06-20T00:46:39.930Z,95.81
2019-06-20T00:47:39.929Z,95.81
2019-06-20T00:48:39.929Z,96.47
2019-06-20T00:49:39.890Z,96.41
2019-06-20T00:50:39.940Z,95.56
2019-06-20T00:51:39.869Z,95.15
2019-06-20T00:52:39.895Z,94.70
2019-06-20T00:53:39.884Z,95.00
2019-06-20T00:54:39.841Z,95.00
2019-06-20T00:55:39.830Z,95.15
2019-06-20T00:56:39.829Z,95.15
2019-06-20T00:57:39.813Z,94.75
2019-06-20T00:58:39.853Z,94.55
2019-06-20T00:59:39.785Z,94.75
2019-06-20T01:00:39.808Z,94.55
2019-06-20T01:01:39.757Z,94.35
2019-06-20T01:02:39.744Z,94.75
2019-06-20T01:03:39.746Z,94.75
2019-06-20T01:04:39.766Z,94.75
2019-06-20T01:05:39.719Z,94.45
2019-06-20T01:06:39.710Z,94.55
2019-06-20T01:07:39.704Z,94.75
2019-06-20T01:08:39.688Z,94.35
2019-06-20T01:09:39.716Z,94.35
2019-06-20T01:10:39.664Z,95.26
2019-06-20T01:11:39.661Z,94.95
2019-06-20T01:12:39.680Z,95.36
2019-06-20T01:13:39.632Z,94.35
2019-06-20T01:14:39.656Z,93.95
2019-06-20T01:15:39.610Z,93.50
2019-06-20T01:16:39.592Z,93.70
2019-06-20T01:17:39.607Z,93.70
2019-06-20T01:18:39.579Z,94.20
2019-06-20T01:19:39.707Z,93.70
2019-06-20T01:20:39.553Z,94.00
2019-06-20T01:21:39.571Z,94.05
2019-06-20T01:22:39.531Z,94.10
2019-06-20T01:23:39.516Z,93.90
2019-06-20T01:24:39.547Z,93.95
2019-06-20T01:25:39.530Z,94.10
2019-06-20T01:26:39.481Z,93.85
2019-06-20T01:27:39.473Z,94.31
2019-06-20T01:28:39.461Z,93.90
2019-06-20T01:29:39.451Z,93.80
2019-06-20T01:30:39.480Z,94.20
2019-06-20T01:31:39.427Z,93.30
2019-06-20T01:32:39.418Z,93.70
2019-06-20T01:33:39.403Z,93.60
2019-06-20T01:34:39.414Z,93.10
2019-06-20T01:35:39.554Z,93.60
2019-06-20T01:36:39.424Z,94.00
2019-06-20T01:37:39.362Z,93.90
2019-06-20T01:38:39.364Z,94.20
2019-06-20T01:39:39.342Z,93.40
2019-06-20T01:40:39.332Z,93.80
2019-06-20T01:41:39.353Z,94.20
2019-06-20T01:42:39.323Z,94.00
2019-06-20T01:43:49.926Z,93.30
2019-06-20T01:44:40.283Z,93.80
2019-06-20T01:45:39.367Z,94.00
2019-06-20T01:46:39.293Z,93.60
2019-06-20T01:47:39.260Z,93.60
2019-06-20T01:48:39.255Z,94.10
2019-06-20T01:49:39.228Z,93.60
2019-06-20T01:50:39.221Z,93.86
2019-06-20T01:51:39.242Z,93.90
2019-06-20T01:52:39.209Z,92.69
2019-06-20T01:53:39.213Z,93.80
2019-06-20T01:54:39.207Z,93.60
2019-06-20T01:55:39.167Z,94.10
2019-06-20T01:56:39.157Z,94.10
2019-06-20T01:57:39.144Z,94.10
2019-06-20T01:58:39.173Z,92.69
2019-06-20T01:59:39.156Z,93.70
2019-06-20T02:00:39.142Z,93.60
2019-06-20T02:01:39.158Z,94.51
2019-06-20T02:02:39.108Z,93.70
2019-06-20T02:03:39.078Z,94.10
2019-06-20T02:04:39.077Z,91.89
2019-06-20T02:05:39.062Z,92.29
2019-06-20T02:06:39.050Z,91.49
2019-06-20T02:07:39.067Z,91.89
2019-06-20T02:08:39.023Z,91.42
2019-06-20T02:09:39.022Z,92.09
2019-06-20T02:10:39.005Z,92.39
2019-06-20T02:11:39.022Z,91.53
2019-06-20T02:12:39.013Z,92.09
2019-06-20T02:13:38.973Z,92.13
2019-06-20T02:14:38.959Z,92.54
2019-06-20T02:15:38.946Z,91.53
2019-06-20T02:16:38.935Z,91.78
2019-06-20T02:17:38.949Z,92.63
2019-06-20T02:18:38.908Z,91.83
2019-06-20T02:19:38.912Z,91.42
2019-06-20T02:20:38.898Z,90.82
2019-06-20T02:21:38.882Z,91.83
2019-06-20T02:22:38.944Z,90.78
2019-06-20T02:23:38.928Z,91.42
2019-06-20T02:24:38.855Z,92.13
2019-06-20T02:25:38.839Z,92.03
2019-06-20T02:26:38.823Z,91.63
2019-06-20T02:27:38.814Z,91.53
2019-06-20T02:28:38.809Z,92.23
2019-06-20T02:29:38.826Z,92.43
2019-06-20T02:30:38.783Z,92.98
2019-06-20T02:31:38.775Z,92.94
2019-06-20T02:32:38.765Z,93.24
2019-06-20T02:33:38.771Z,92.68
2019-06-20T02:34:38.731Z,92.88
2019-06-20T02:35:38.727Z,93.69
2019-06-20T02:36:38.707Z,93.89
2019-06-20T02:37:38.707Z,94.29
2019-06-20T02:38:38.725Z,94.29
2019-06-20T02:39:38.775Z,93.89
2019-06-20T02:40:38.664Z,93.89
2019-06-20T02:41:38.667Z,94.19
2019-06-20T02:42:38.651Z,94.24
2019-06-20T02:43:38.640Z,94.29
2019-06-20T02:44:38.623Z,94.49
2019-06-20T02:45:38.640Z,93.99
2019-06-20T02:46:38.601Z,94.64
2019-06-20T02:47:38.597Z,94.44
2019-06-20T02:48:38.578Z,93.53
2019-06-20T02:49:38.579Z,94.13
2019-06-20T02:50:38.598Z,93.18
2019-06-20T02:51:38.543Z,93.13
2019-06-20T02:52:38.531Z,92.42
2019-06-20T02:53:38.521Z,93.29
2019-06-20T02:54:38.532Z,94.09
2019-06-20T02:55:38.528Z,92.93
2019-06-20T02:56:38.496Z,92.93
2019-06-20T02:57:38.481Z,93.23
2019-06-20T02:58:38.468Z,94.04
2019-06-20T02:59:38.454Z,93.23
2019-06-20T03:00:38.488Z,93.13
2019-06-20T03:01:38.439Z,94.24
2019-06-20T03:02:38.425Z,94.04
2019-06-20T03:03:38.419Z,94.64
2019-06-20T03:04:38.409Z,94.24
2019-06-20T03:05:38.398Z,94.68
2019-06-20T03:06:38.433Z,95.14
2019-06-20T03:07:38.391Z,95.49
2019-06-20T03:08:38.360Z,95.70
2019-06-20T03:09:38.349Z,95.29
2019-06-20T03:10:38.347Z,95.70
2019-06-20T03:11:38.330Z,95.70
2019-06-20T03:12:38.341Z,96.45
2019-06-20T03:13:38.307Z,95.94
2019-06-20T03:14:45.531Z,96.14
2019-06-20T03:15:39.281Z,96.04
2019-06-20T03:16:38.320Z,96.25
2019-06-20T03:17:38.268Z,96.80
2019-06-20T03:18:38.244Z,96.49
2019-06-20T03:19:38.242Z,96.95
2019-06-20T03:20:38.225Z,96.80
2019-06-20T03:21:38.249Z,96.80
2019-06-20T03:22:38.242Z,97.10
2019-06-20T03:23:38.196Z,97.10
2019-06-20T03:24:38.194Z,97.10
2019-06-20T03:25:38.181Z,97.30
2019-06-20T03:26:38.163Z,97.40
2019-06-20T03:27:38.148Z,97.60
2019-06-20T03:28:38.168Z,97.40
2019-06-20T03:29:38.138Z,97.50
2019-06-20T03:30:38.130Z,97.50
2019-06-20T03:31:38.109Z,97.30
2019-06-20T03:32:38.096Z,97.34
2019-06-20T03:33:38.116Z,97.45
2019-06-20T03:34:38.073Z,97.10
2019-06-20T03:35:38.060Z,97.10
2019-06-20T03:36:38.050Z,97.10
2019-06-20T03:37:38.072Z,97.34
2019-06-20T03:38:38.067Z,97.30
2019-06-20T03:39:38.024Z,97.55
2019-06-20T03:40:38.013Z,97.34
2019-06-20T03:41:37.997Z,97.14
2019-06-20T03:42:38.054Z,97.55
2019-06-20T03:43:38.015Z,97.65
2019-06-20T03:44:37.958Z,96.84
2019-06-20T03:45:37.949Z,96.64
2019-06-20T03:46:37.937Z,96.94
2019-06-20T03:47:37.933Z,96.54
2019-06-20T03:48:37.987Z,96.84
2019-06-20T03:49:37.915Z,96.74
2019-06-20T03:50:37.896Z,97.25
2019-06-20T03:51:37.895Z,97.45
2019-06-20T03:52:37.887Z,96.23
2019-06-20T03:53:37.864Z,96.44
2019-06-20T03:54:37.878Z,96.44
2019-06-20T03:55:37.846Z,96.64
2019-06-20T03:56:37.835Z,95.43
2019-06-20T03:57:37.820Z,95.38
2019-06-20T03:58:37.929Z,95.63
2019-06-20T03:59:37.802Z,95.48
2019-06-20T04:00:37.790Z,95.68
2019-06-20T04:01:37.783Z,96.19
2019-06-20T04:02:37.769Z,94.57
2019-06-20T04:03:37.758Z,94.67
2019-06-20T04:04:37.769Z,94.78
2019-06-20T04:05:37.732Z,95.38
2019-06-20T04:06:37.741Z,94.98
2019-06-20T04:07:37.754Z,94.78
2019-06-20T04:08:37.705Z,94.67
2019-06-20T04:09:37.733Z,94.17
2019-06-20T04:10:37.679Z,94.17
2019-06-20T04:11:37.669Z,94.47
2019-06-20T04:12:37.681Z,93.36
2019-06-20T04:13:37.676Z,93.87
2019-06-20T04:14:37.629Z,93.01
2019-06-20T04:15:37.663Z,93.21
2019-06-20T04:16:37.620Z,94.23
2019-06-20T04:17:37.601Z,94.43
2019-06-20T04:18:37.597Z,93.32
2019-06-20T04:19:37.596Z,94.23
2019-06-20T04:20:37.567Z,93.98
2019-06-20T04:21:37.583Z,94.02
2019-06-20T04:22:37.554Z,93.98
2019-06-20T04:23:37.546Z,92.66
2019-06-20T04:24:37.519Z,92.26
2019-06-20T04:25:37.549Z,92.26
2019-06-20T04:26:37.497Z,92.57
2019-06-20T04:27:37.488Z,92.82
2019-06-20T04:28:37.479Z,92.62
2019-06-20T04:29:37.466Z,92.42
2019-06-20T04:30:37.501Z,92.12
2019-06-20T04:31:37.445Z,92.62
2019-06-20T04:32:37.458Z,92.42
2019-06-20T04:33:37.426Z,92.12
2019-06-20T04:34:37.412Z,91.61
2019-06-20T04:35:37.433Z,91.82
2019-06-20T04:36:37.408Z,92.22
2019-06-20T04:37:37.375Z,91.71
2019-06-20T04:38:37.402Z,91.51
2019-06-20T04:39:37.360Z,92.22
2019-06-20T04:40:37.350Z,92.72
2019-06-20T04:41:37.337Z,92.98
2019-06-20T04:42:37.350Z,92.68
2019-06-20T04:43:37.325Z,92.78
2019-06-20T04:44:37.305Z,93.08
2019-06-20T04:45:37.311Z,92.98
2019-06-20T04:46:37.279Z,92.88
2019-06-20T04:47:37.295Z,93.29
2019-06-20T04:48:37.295Z,90.77
2019-06-20T04:49:37.247Z,91.77
2019-06-20T04:50:37.232Z,92.07
2019-06-20T04:51:37.225Z,91.57
2019-06-20T04:52:37.264Z,90.77
2019-06-20T04:53:37.198Z,91.02
2019-06-20T04:54:37.186Z,91.63
2019-06-20T04:55:37.181Z,90.42
2019-06-20T04:56:37.173Z,89.71
2019-06-20T04:57:37.156Z,90.62
2019-06-20T04:58:37.203Z,89.57
2019-06-20T04:59:37.131Z,89.67
2019-06-20T05:00:37.131Z,89.97
2019-06-20T05:01:37.119Z,88.82
2019-06-20T05:02:37.144Z,88.72
2019-06-20T05:03:37.109Z,90.13
2019-06-20T05:04:37.108Z,88.32
2019-06-20T05:05:37.081Z,88.88
2019-06-20T05:06:37.055Z,88.48
2019-06-20T05:07:37.048Z,88.48
2019-06-20T05:08:37.075Z,88.07
2019-06-20T05:09:37.035Z,88.38
2019-06-20T05:10:37.049Z,87.43
2019-06-20T05:11:37.003Z,87.47
2019-06-20T05:12:37.003Z,87.53
2019-06-20T05:13:36.984Z,86.83
2019-06-20T05:14:37.024Z,87.08
2019-06-20T05:15:51.609Z,87.39
2019-06-20T05:16:37.960Z,86.99
2019-06-20T05:17:36.947Z,85.28
2019-06-20T05:18:36.929Z,85.48
2019-06-20T05:19:36.947Z,85.44
2019-06-20T05:20:36.938Z,85.24
2019-06-20T05:21:36.894Z,85.33
2019-06-20T05:22:41.182Z,84.53
2019-06-20T05:23:36.879Z,84.74
2019-06-20T05:24:36.893Z,84.74
2019-06-20T05:25:36.884Z,85.14
2019-06-20T05:26:36.859Z,84.53
2019-06-20T05:27:36.845Z,84.63
2019-06-20T05:28:36.816Z,84.74
2019-06-20T05:29:36.821Z,84.83
2019-06-20T05:30:36.849Z,84.74
2019-06-20T05:31:36.893Z,83.12
2019-06-20T05:32:36.784Z,84.74
2019-06-20T05:33:36.787Z,84.88
2019-06-20T05:34:36.830Z,85.03
2019-06-20T05:35:36.741Z,85.14
2019-06-20T05:36:36.735Z,84.57
2019-06-20T05:37:36.749Z,84.77
2019-06-20T05:38:36.712Z,85.28
2019-06-20T05:39:36.707Z,85.38
2019-06-20T05:40:37.311Z,85.44
2019-06-20T05:41:36.713Z,85.28
2019-06-20T05:42:36.673Z,85.98
2019-06-20T05:43:36.665Z,85.88
2019-06-20T05:44:36.668Z,85.08
2019-06-20T05:45:36.637Z,85.58
2019-06-20T05:46:36.654Z,86.08
2019-06-20T05:47:36.660Z,85.78
2019-06-20T05:48:36.630Z,85.28
2019-06-20T05:49:37.122Z,85.68
2019-06-20T05:50:36.586Z,85.53
2019-06-20T05:51:39.660Z,85.24
2019-06-20T05:52:36.610Z,85.78
2019-06-20T05:53:36.567Z,85.53
2019-06-20T05:54:36.534Z,85.44
2019-06-20T05:55:36.524Z,85.14
2019-06-20T05:56:36.526Z,85.14
2019-06-20T05:57:36.518Z,84.39
2019-06-20T05:58:36.520Z,83.49
2019-06-20T05:59:36.481Z,83.59
2019-06-20T06:00:36.470Z,84.59
2019-06-20T06:01:36.461Z,83.79
2019-06-20T06:02:36.446Z,84.65
2019-06-20T06:03:36.486Z,84.05
2019-06-20T06:04:36.433Z,84.25
2019-06-20T06:05:37.168Z,82.75
2019-06-20T06:06:36.403Z,83.25
2019-06-20T06:07:36.485Z,84.31
2019-06-20T06:08:36.713Z,83.21
2019-06-20T06:09:36.375Z,83.85
2019-06-20T06:10:36.377Z,83.71
2019-06-20T06:11:36.351Z,83.31
2019-06-20T06:12:36.416Z,82.00
2019-06-20T06:13:36.381Z,82.40
2019-06-20T06:14:36.320Z,82.57
2019-06-20T06:15:36.313Z,82.67
2019-06-20T06:16:36.299Z,81.87
2019-06-20T06:17:36.290Z,82.23
2019-06-20T06:18:36.350Z,82.32
2019-06-20T06:19:36.292Z,82.69
2019-06-20T06:20:36.259Z,81.88
2019-06-20T06:21:36.244Z,80.58
2019-06-20T06:22:36.272Z,79.68
2019-06-20T06:23:36.222Z,80.18
2019-06-20T06:24:36.239Z,79.58
2019-06-20T06:25:36.241Z,81.04
2019-06-20T06:26:36.195Z,81.15
2019-06-20T06:27:36.288Z,80.74
2019-06-20T06:28:36.178Z,77.44
2019-06-20T06:29:36.221Z,75.84
2019-06-20T06:30:36.155Z,76.70
2019-06-20T06:31:36.138Z,77.24
2019-06-20T06:32:40.193Z,77.04
2019-06-20T06:33:36.120Z,77.04
2019-06-20T06:34:36.105Z,77.84
2019-06-20T06:35:36.123Z,77.84
2019-06-20T06:36:36.147Z,77.24
2019-06-20T06:37:36.071Z,76.24
2019-06-20T06:38:36.066Z,75.74
2019-06-20T06:39:36.048Z,77.30
2019-06-20T06:40:36.074Z,78.54
2019-06-20T06:41:36.035Z,76.40
2019-06-20T06:42:36.024Z,75.23
2019-06-20T06:43:41.593Z,75.27
2019-06-20T06:44:37.007Z,76.17
2019-06-20T06:45:36.033Z,77.14
2019-06-20T06:46:44.815Z,76.24
2019-06-20T06:47:36.997Z,75.04
2019-06-20T06:48:35.969Z,75.54
2019-06-20T06:49:35.944Z,74.40
2019-06-20T06:50:36.037Z,75.70
2019-06-20T06:51:38.147Z,75.56
2019-06-20T06:52:35.922Z,75.93
2019-06-20T06:53:35.907Z,76.15
2019-06-20T06:54:35.890Z,74.26
2019-06-20T06:55:35.884Z,71.33
2019-06-20T06:56:35.908Z,72.32
2019-06-20T06:57:35.874Z,72.39
2019-06-20T06:58:35.855Z,71.26
2019-06-20T06:59:35.847Z,71.56
2019-06-20T07:00:35.829Z,71.02
2019-06-20T07:01:35.815Z,71.32
2019-06-20T07:02:35.839Z,70.42
2019-06-20T07:03:35.801Z,70.12
2019-06-20T07:04:35.778Z,69.76
2019-06-20T07:05:35.806Z,69.96
2019-06-20T07:06:35.780Z,69.89
2019-06-20T07:07:35.757Z,71.12
2019-06-20T07:08:35.775Z,71.83
2019-06-20T07:09:35.732Z,71.66
2019-06-20T07:10:35.733Z,71.96
2019-06-20T07:11:35.762Z,70.79
2019-06-20T07:12:35.700Z,71.66
2019-06-20T07:13:35.729Z,72.06
2019-06-20T07:14:35.698Z,72.76
2019-06-20T07:15:35.663Z,73.32
2019-06-20T07:16:35.652Z,71.12
2019-06-20T07:17:35.647Z,72.59
2019-06-20T07:18:35.669Z,71.86
2019-06-20T07:19:35.618Z,69.36
2019-06-20T07:20:35.635Z,70.12
2019-06-20T07:21:35.600Z,68.13
2019-06-20T07:22:35.585Z,68.10
2019-06-20T07:23:35.638Z,68.30
2019-06-20T07:24:35.800Z,66.50
2019-06-20T07:25:35.576Z,66.24
2019-06-20T07:26:35.581Z,66.43
2019-06-20T07:27:35.586Z,68.73
2019-06-20T07:28:35.530Z,68.83
2019-06-20T07:29:35.514Z,69.49
2019-06-20T07:30:35.580Z,69.69
2019-06-20T07:31:35.510Z,69.79
2019-06-20T07:32:35.532Z,69.69
2019-06-20T07:33:35.477Z,68.30
2019-06-20T07:34:35.480Z,68.63
2019-06-20T07:35:35.457Z,67.83
2019-06-20T07:36:35.442Z,67.70
2019-06-20T07:37:35.445Z,66.07
2019-06-20T07:38:35.456Z,64.51
2019-06-20T07:39:35.409Z,66.34
2019-06-20T07:40:35.396Z,63.79
2019-06-20T07:41:35.493Z,61.80
2019-06-20T07:42:35.393Z,64.87
2019-06-20T07:43:35.453Z,65.20
2019-06-20T07:44:35.357Z,66.66
2019-06-20T07:45:35.360Z,67.76
2019-06-20T07:46:35.327Z,68.56
2019-06-20T07:47:35.332Z,68.06
2019-06-20T07:48:35.320Z,69.79
2019-06-20T07:49:35.370Z,68.49
2019-06-20T07:50:38.479Z,69.73
2019-06-20T07:51:35.283Z,70.49
2019-06-20T07:52:35.274Z,68.40
2019-06-20T07:53:35.256Z,68.03
2019-06-20T07:54:35.255Z,68.90
2019-06-20T07:55:35.286Z,68.19
2019-06-20T07:56:35.231Z,67.40
2019-06-20T07:57:35.219Z,65.97
2019-06-20T07:58:35.229Z,64.98
2019-06-20T07:59:35.240Z,63.03
2019-06-20T08:00:35.209Z,61.45
2019-06-20T08:01:35.194Z,60.85
2019-06-20T08:02:35.167Z,61.80
2019-06-20T08:03:35.168Z,62.26
2019-06-20T08:04:35.191Z,62.96
2019-06-20T08:05:35.166Z,58.44
2019-06-20T08:06:35.119Z,57.75
2019-06-20T08:07:35.138Z,59.28
2019-06-20T08:08:35.106Z,57.29
2019-06-20T08:09:44.711Z,56.79
2019-06-20T08:10:36.128Z,54.37
2019-06-20T08:11:35.082Z,55.63
2019-06-20T08:12:35.073Z,57.61
2019-06-20T08:13:35.036Z,56.92
2019-06-20T08:14:35.029Z,55.73
2019-06-20T08:15:35.060Z,57.21
2019-06-20T08:16:35.014Z,56.65
2019-06-20T08:17:35.862Z,56.65
2019-06-20T08:18:35.029Z,56.23
2019-06-20T08:19:35.010Z,54.54
2019-06-20T08:20:35.013Z,54.37
2019-06-20T08:21:35.007Z,55.78
2019-06-20T08:22:34.949Z,58.33
2019-06-20T08:23:34.931Z,56.21
2019-06-20T08:24:35.053Z,57.00
2019-06-20T08:25:34.915Z,57.07
2019-06-20T08:26:34.953Z,54.47
2019-06-20T08:27:34.971Z,54.89
2019-06-20T08:28:34.883Z,55.58
2019-06-20T08:29:34.888Z,57.32
2019-06-20T08:30:34.878Z,57.76
2019-06-20T08:31:34.848Z,56.05
2019-06-20T08:32:34.897Z,55.90
2019-06-20T08:33:34.933Z,53.77
2019-06-20T08:34:35.179Z,52.34
2019-06-20T08:35:35.020Z,51.52
2019-06-20T08:36:35.007Z,49.22
2019-06-20T08:37:34.865Z,49.97
2019-06-20T08:38:34.823Z,50.44
2019-06-20T08:39:34.780Z,48.71
2019-06-20T08:40:34.789Z,46.60
2019-06-20T08:41:34.748Z,45.79
2019-06-20T08:42:34.782Z,45.77
2019-06-20T08:43:34.732Z,46.14
2019-06-20T08:44:34.723Z,44.49
2019-06-20T08:45:34.746Z,43.95
2019-06-20T08:46:34.697Z,46.13
2019-06-20T08:47:34.723Z,44.29
2019-06-20T08:48:34.788Z,46.94
2019-06-20T08:49:34.667Z,46.84
2019-06-20T08:50:34.661Z,46.43
2019-06-20T08:51:34.643Z,47.12
2019-06-20T08:52:34.685Z,47.09
2019-06-20T08:53:34.687Z,44.83
2019-06-20T08:54:34.615Z,46.15
2019-06-20T08:55:34.607Z,44.68
2019-06-20T08:56:34.614Z,45.09
2019-06-20T08:57:34.585Z,46.30
2019-06-20T08:58:34.575Z,46.30
2019-06-20T08:59:34.592Z,46.50
2019-06-20T09:00:34.563Z,46.20
2019-06-20T09:01:34.553Z,48.00
2019-06-20T09:02:34.545Z,47.38
2019-06-20T09:03:34.537Z,46.96
2019-06-20T09:04:34.574Z,48.34
2019-06-20T09:05:34.506Z,49.01
2019-06-20T09:06:34.503Z,50.21
2019-06-20T09:07:34.486Z,49.96
2019-06-20T09:08:34.477Z,48.93
2019-06-20T09:09:34.461Z,49.62
2019-06-20T09:10:34.492Z,48.00
2019-06-20T09:11:34.446Z,47.48
2019-06-20T09:12:34.439Z,46.99
2019-06-20T09:13:34.455Z,46.18
2019-06-20T09:14:34.416Z,47.66
2019-06-20T09:15:34.444Z,45.76
2019-06-20T09:16:34.400Z,46.33
2019-06-20T09:17:34.396Z,46.85
2019-06-20T09:18:34.381Z,43.80
2019-06-20T09:19:34.364Z,42.71
2019-06-20T09:20:34.385Z,42.68
2019-06-20T09:21:34.349Z,42.19
2019-06-20T09:22:34.330Z,43.39
2019-06-20T09:23:35.742Z,42.51
2019-06-20T09:24:34.330Z,42.51
2019-06-20T09:25:34.360Z,43.59
2019-06-20T09:26:34.319Z,44.13
2019-06-20T09:27:34.290Z,42.74
2019-06-20T09:28:34.289Z,41.39
2019-06-20T09:29:41.606Z,42.29
2019-06-20T09:30:35.292Z,42.49
2019-06-20T09:31:34.260Z,42.68
2019-06-20T09:32:34.240Z,42.58
2019-06-20T09:33:34.248Z,42.47
2019-06-20T09:34:34.254Z,42.27
2019-06-20T09:35:34.219Z,42.19
2019-06-20T09:36:34.225Z,42.88
2019-06-20T09:37:34.196Z,45.02
2019-06-20T09:38:34.182Z,40.95
2019-06-20T09:39:34.225Z,42.19
2019-06-20T09:40:34.173Z,41.60
2019-06-20T09:41:34.196Z,43.19
2019-06-20T09:42:36.841Z,43.18
2019-06-20T09:43:34.139Z,44.02
2019-06-20T09:44:34.135Z,41.13
2019-06-20T09:45:34.116Z,39.62
2019-06-20T09:46:34.142Z,40.08
2019-06-20T09:47:34.097Z,40.90
2019-06-20T09:48:34.117Z,41.98
2019-06-20T09:49:34.085Z,41.00
2019-06-20T09:50:34.115Z,44.02
2019-06-20T09:51:34.092Z,46.10
2019-06-20T09:52:34.067Z,45.86
2019-06-20T09:53:34.054Z,44.57
2019-06-20T09:54:34.039Z,44.70
2019-06-20T09:55:34.049Z,41.02
2019-06-20T09:56:34.078Z,38.71
2019-06-20T09:57:34.010Z,38.61
2019-06-20T09:58:33.987Z,39.66
2019-06-20T09:59:33.995Z,40.64
2019-06-20T10:00:33.979Z,40.14
2019-06-20T10:01:33.964Z,39.80
2019-06-20T10:02:34.022Z,39.37
2019-06-20T10:03:33.943Z,39.90
2019-06-20T10:04:33.945Z,36.37
2019-06-20T10:05:33.930Z,36.16
2019-06-20T10:06:33.927Z,35.82
2019-06-20T10:07:33.948Z,36.63
2019-06-20T10:08:33.974Z,37.77
2019-06-20T10:09:33.893Z,40.01
2019-06-20T10:10:33.879Z,38.22
2019-06-20T10:11:33.872Z,40.03
2019-06-20T10:12:33.910Z,42.05
2019-06-20T10:13:33.847Z,44.18
2019-06-20T10:14:33.846Z,44.01
2019-06-20T10:15:33.831Z,45.42
2019-06-20T10:16:45.394Z,45.92
2019-06-20T10:17:34.876Z,42.96
2019-06-20T10:18:33.805Z,43.04
2019-06-20T10:19:33.794Z,45.62
2019-06-20T10:20:33.780Z,45.71
2019-06-20T10:21:33.778Z,46.91
2019-06-20T10:22:33.758Z,48.71
2019-06-20T10:23:33.792Z,49.33
2019-06-20T10:24:33.735Z,49.27
2019-06-20T10:25:33.725Z,49.69
2019-06-20T10:26:37.394Z,51.77
2019-06-20T10:27:33.713Z,51.99
2019-06-20T10:28:33.708Z,49.22
2019-06-20T10:29:33.749Z,49.42
2019-06-20T10:30:33.682Z,51.70
2019-06-20T10:31:33.664Z,51.50
2019-06-20T10:32:33.655Z,51.89
2019-06-20T10:33:33.646Z,50.04
2019-06-20T10:34:33.632Z,50.06
2019-06-20T10:35:33.686Z,53.82
2019-06-20T10:36:33.629Z,52.22
2019-06-20T10:37:33.620Z,52.34
2019-06-20T10:38:33.620Z,53.53
2019-06-20T10:39:33.620Z,52.83
2019-06-20T10:40:33.573Z,54.91
2019-06-20T10:41:33.558Z,51.77
2019-06-20T10:42:33.553Z,52.36
2019-06-20T10:43:33.544Z,52.17
2019-06-20T10:44:33.533Z,52.76
2019-06-20T10:45:33.557Z,51.70
2019-06-20T10:46:33.510Z,55.46
2019-06-20T10:47:36.020Z,52.22
2019-06-20T10:48:33.494Z,55.66
2019-06-20T10:49:33.481Z,56.15
2019-06-20T10:50:33.503Z,56.05
2019-06-20T10:51:33.459Z,54.54
2019-06-20T10:52:33.443Z,55.60
2019-06-20T10:53:33.432Z,55.68
2019-06-20T10:54:33.426Z,56.20
2019-06-20T10:55:33.446Z,56.10
2019-06-20T10:56:33.406Z,52.73
2019-06-20T10:57:33.404Z,52.17
2019-06-20T10:58:33.384Z,53.88
2019-06-20T10:59:33.372Z,55.93
2019-06-20T11:00:33.391Z,51.89
2019-06-20T11:01:33.412Z,54.10
2019-06-20T11:02:33.366Z,52.81
2019-06-20T11:03:33.607Z,53.13
2019-06-20T11:04:33.323Z,54.62
2019-06-20T11:05:33.317Z,54.60
2019-06-20T11:06:33.310Z,54.77
2019-06-20T11:07:33.323Z,52.86
2019-06-20T11:08:33.291Z,52.66
2019-06-20T11:09:33.396Z,52.56
2019-06-20T11:10:33.258Z,52.29
2019-06-20T11:11:33.969Z,51.97
2019-06-20T11:12:42.860Z,52.09
2019-06-20T11:13:34.239Z,49.91
2019-06-20T11:14:33.540Z,52.19
2019-06-20T11:15:33.208Z,55.35
2019-06-20T11:16:33.246Z,50.34
2019-06-20T11:17:33.181Z,52.31
2019-06-20T11:18:33.174Z,52.83
2019-06-20T11:19:33.159Z,51.47
2019-06-20T11:20:33.150Z,52.14
2019-06-20T11:21:33.140Z,52.17
2019-06-20T11:22:33.167Z,52.49
2019-06-20T11:23:33.159Z,52.31
2019-06-20T11:24:33.111Z,55.49
2019-06-20T11:25:33.551Z,54.60
2019-06-20T11:26:33.100Z,53.90
2019-06-20T11:27:33.131Z,54.02
2019-06-20T11:28:33.071Z,56.21
2019-06-20T11:29:33.056Z,56.18
2019-06-20T11:30:46.501Z,55.39
2019-06-20T11:31:34.095Z,53.50
2019-06-20T11:32:33.064Z,54.60
2019-06-20T11:33:33.160Z,54.00
2019-06-20T11:34:33.048Z,55.58
2019-06-20T11:35:33.070Z,54.82
2019-06-20T11:36:33.371Z,53.73
2019-06-20T11:37:32.989Z,53.96
2019-06-20T11:38:32.957Z,55.41
2019-06-20T11:39:32.986Z,56.60
2019-06-20T11:40:35.259Z,56.60
2019-06-20T11:41:32.979Z,56.90
2019-06-20T11:42:32.916Z,55.51
2019-06-20T11:43:34.614Z,58.78
2019-06-20T11:44:35.370Z,58.39
2019-06-20T11:45:35.452Z,57.32
2019-06-20T11:46:35.307Z,56.53
2019-06-20T11:47:34.904Z,60.93
2019-06-20T11:48:34.336Z,55.36
2019-06-20T11:49:34.575Z,55.42
2019-06-20T11:50:34.454Z,56.74
2019-06-20T11:51:34.361Z,57.24
2019-06-20T11:52:36.920Z,59.05
2019-06-20T11:53:35.285Z,58.69
2019-06-20T11:54:34.345Z,59.41
2019-06-20T11:55:32.805Z,60.38
2019-06-20T11:56:32.768Z,60.21
2019-06-20T11:57:32.767Z,61.20
2019-06-20T11:58:32.743Z,62.29
2019-06-20T11:59:32.739Z,62.32
2019-06-20T12:00:32.749Z,62.45
2019-06-20T12:01:33.347Z,63.15
2019-06-20T12:02:32.704Z,64.01
2019-06-20T12:03:32.693Z,62.32
2019-06-20T12:04:32.684Z,62.62
2019-06-20T12:05:32.697Z,62.02
2019-06-20T12:06:32.654Z,62.02
2019-06-20T12:07:32.655Z,61.99
2019-06-20T12:08:32.641Z,62.66
2019-06-20T12:09:32.658Z,62.46
2019-06-20T12:10:32.631Z,61.20
2019-06-20T12:11:32.601Z,62.07
2019-06-20T12:12:32.588Z,61.83
2019-06-20T12:13:32.599Z,62.73
2019-06-20T12:14:32.828Z,59.35
2019-06-20T12:15:32.557Z,59.65
2019-06-20T12:16:32.584Z,59.55
2019-06-20T12:17:32.582Z,60.64
2019-06-20T12:18:32.542Z,60.25
2019-06-20T12:19:32.522Z,61.94
2019-06-20T12:20:32.508Z,62.70
2019-06-20T12:21:32.501Z,63.79
2019-06-20T12:22:32.490Z,61.91
2019-06-20T12:23:32.587Z,60.09
2019-06-20T12:24:32.463Z,59.52
2019-06-20T12:25:32.461Z,60.19
2019-06-20T12:26:32.475Z,61.88
2019-06-20T12:27:32.456Z,62.07
2019-06-20T12:28:32.433Z,60.78
2019-06-20T12:29:32.464Z,63.37
2019-06-20T12:30:32.411Z,61.01
2019-06-20T12:31:32.402Z,60.14
2019-06-20T12:32:32.380Z,60.05
2019-06-20T12:33:32.819Z,61.17
2019-06-20T12:34:32.449Z,62.07
2019-06-20T12:35:32.357Z,61.87
2019-06-20T12:36:32.731Z,62.56
2019-06-20T12:37:32.361Z,62.29
2019-06-20T12:38:32.327Z,62.79
2019-06-20T12:39:32.301Z,61.80
2019-06-20T12:40:32.326Z,61.99
2019-06-20T12:41:32.297Z,61.30
2019-06-20T12:42:32.271Z,62.02
2019-06-20T12:43:32.259Z,63.59
2019-06-20T12:44:32.663Z,64.88
2019-06-20T12:45:32.248Z,65.21
2019-06-20T12:46:32.239Z,64.51
2019-06-20T12:47:32.217Z,64.64
2019-06-20T12:48:32.212Z,66.24
2019-06-20T12:49:32.229Z,65.24
2019-06-20T12:50:32.185Z,67.96
2019-06-20T12:51:32.179Z,67.30
2019-06-20T12:52:32.240Z,67.80